Impacts TAF Board INFO
FOR SITUATIONAL AWARENESS. NOT TO BE USED FOR FLIGHT PLANNING PURPOSES.
IDs:

KISP - Islip/Macarthur Arpt, NY, US

Issued at 1733 UTC 17 Oct 2017
Updated at 1840 UTC 17 Oct 2017
Potential Impact None Slight Moderate High
Time<<18/07Z 18/08Z 18/09Z 18/10Z 18/11Z 18/12Z 18/13Z 18/14Z 18/15Z 18/16Z 18/17Z 18/18Z 18/19Z>>
Type PRVL PRVL PRVL PRVL PRVL PRVL PRVL PRVL PRVL PRVL PRVL
VIS >6 >6 >6 >6 >6 >6 >6 >6 >6 >6 >6
CIG -- -- -- -- -- -- -- -- -- -- --
Cover SKC SKC SKC SKC SKC SKC SKC SKC SKC SKC SKC
FltCat VFR VFR VFR VFR VFR VFR VFR VFR VFR VFR VFR
WX -- -- -- -- -- -- -- -- -- -- --
WDir VRB VRB VRB VRB VRB VRB VRB VRB 280 280 280
WSpd 4 4 4 4 4 4 4 4 6 6 6
WGst -- -- -- -- -- -- -- -- -- -- --

Raw TAF
KISP 171733Z 1718/1818 35006KT P6SM SKC
  FM172000 22005KT P6SM SKC
  FM180300 VRB04KT P6SM SKC
  FM181500 28006KT P6SM SKC


METAR Board
Radar Display
Forecast Discussion

FOR SITUATIONAL AWARENESS. NOT TO BE USED FOR FLIGHT PLANNING PURPOSES.